Time;durP1;ratioP1;P1;durP2;ratioP2;P2;SDS_P1;SDS_P2;PMS_P1;PMS_P2;Temp;Humidity;BMP_temperature;BMP_pressure;BME280_temperature;BME280_humidity;BME280_pressure;Samples;Min_cycle;Max_cycle;Signal;HPM_P1;HPM_P2
2020/12/02 00:02:19;;;;;;;0.70;0.70;;;5.40;99.90;;;5.85;100.00;-20841.28;5036316;28;20499;-72
2020/12/02 00:04:49;;;;;;;0.70;0.60;;;5.40;99.90;;;5.85;100.00;-20841.44;5032088;28;20905;-72
2020/12/02 00:07:18;;;;;;;0.80;0.80;;;5.40;99.90;;;5.85;100.00;-20841.28;5046340;28;20961;-72
2020/12/02 00:09:46;;;;;;;0.60;0.50;;;5.40;99.90;;;5.81;100.00;-20840.47;5033473;28;20413;-72
2020/12/02 00:12:14;;;;;;;0.60;0.50;;;5.40;99.90;;;5.80;100.00;-20840.03;5032706;28;20506;-72
2020/12/02 00:14:41;;;;;;;0.70;0.60;;;5.40;99.90;;;5.79;100.00;-20839.75;5048579;28;20445;-72
2020/12/02 00:17:16;;;;;;;0.70;0.60;;;5.30;99.90;;;5.79;100.00;-20839.91;5045382;28;20463;-72
2020/12/02 00:19:47;;;;;;;0.70;0.60;;;5.30;99.90;;;5.78;100.00;-20839.63;5051803;28;20561;-72
2020/12/02 00:22:17;;;;;;;0.70;0.60;;;5.30;99.90;;;5.78;100.00;-20839.47;5052234;28;20446;-72
2020/12/02 00:24:46;;;;;;;0.60;0.60;;;5.30;99.90;;;5.81;100.00;-20840.47;5052859;28;20802;-72
2020/12/02 00:27:17;;;;;;;0.70;0.60;;;5.30;99.90;;;5.86;100.00;-20841.56;5051884;28;20465;-72
2020/12/02 00:29:45;;;;;;;1.53;1.43;;;5.40;99.90;;;5.81;100.00;-20840.47;5052789;28;20772;-72
2020/12/02 00:32:25;;;;;;;0.60;0.60;;;5.30;99.90;;;5.82;100.00;-20840.75;5050724;28;20448;-73
2020/12/02 00:34:52;;;;;;;0.60;0.50;;;5.30;99.90;;;5.87;100.00;-20842.00;5032926;28;20443;-72
2020/12/02 00:37:20;;;;;;;0.60;0.50;;;5.40;99.90;;;5.85;100.00;-20841.28;5033400;28;20428;-72
2020/12/02 00:39:47;;;;;;;0.63;0.57;;;5.40;99.90;;;5.79;100.00;-20839.75;5031948;28;20441;-72
2020/12/02 00:42:16;;;;;;;0.60;0.60;;;5.40;99.90;;;5.85;100.00;-20841.28;5039080;28;20557;-72
2020/12/02 00:44:43;;;;;;;0.60;0.57;;;5.40;99.90;;;5.86;100.00;-20841.72;5037216;28;20437;-71
2020/12/02 00:47:11;;;;;;;0.70;0.60;;;5.40;99.90;;;5.85;100.00;-20841.28;5064839;28;20479;-72
2020/12/02 00:49:38;;;;;;;0.60;0.50;;;5.40;99.90;;;5.85;100.00;-20841.44;5070206;28;20941;-72
2020/12/02 00:52:06;;;;;;;0.70;0.60;;;5.40;99.90;;;5.82;100.00;-20840.75;5071932;28;20452;-72
2020/12/02 00:54:34;;;;;;;0.70;0.63;;;5.40;99.90;;;5.82;100.00;-20840.75;5054892;28;20458;-72
2020/12/02 00:57:03;;;;;;;0.70;0.60;;;5.40;99.90;;;5.86;100.00;-20841.56;5051432;28;20428;-72
2020/12/02 00:59:31;;;;;;;0.70;0.60;;;5.40;99.90;;;5.88;100.00;-20842.28;5036598;28;20424;-72
2020/12/02 01:02:07;;;;;;;0.60;0.50;;;5.40;99.90;;;5.86;100.00;-20841.56;5045862;28;20803;-71
2020/12/02 01:04:37;;;;;;;0.60;0.60;;;5.40;99.90;;;5.79;100.00;-20839.91;5055526;28;20432;-71
2020/12/02 01:07:04;;;;;;;0.70;0.60;;;5.40;99.90;;;5.81;100.00;-20840.47;5041016;28;20469;-72
2020/12/02 01:09:31;;;;;;;0.70;0.60;;;5.40;99.90;;;5.82;100.00;-20840.75;5036215;28;20786;-72
2020/12/02 01:12:02;;;;;;;0.60;0.60;;;5.40;99.90;;;5.80;100.00;-20840.19;5045605;28;20440;-70
2020/12/02 01:14:31;;;;;;;0.60;0.50;;;5.30;99.90;;;5.75;100.00;-20838.78;5053718;28;20451;-70
2020/12/02 01:17:01;;;;;;;0.60;0.50;;;5.30;99.90;;;5.77;100.00;-20839.22;5061800;28;20514;-69
2020/12/02 01:19:33;;;;;;;0.70;0.60;;;5.30;99.90;;;5.73;100.00;-20838.22;5055208;28;20432;-70
2020/12/02 01:22:08;;;;;;;0.70;0.60;;;5.30;99.90;;;5.79;100.00;-20839.91;5044460;28;20476;-70
2020/12/02 01:24:42;;;;;;;0.70;0.60;;;5.30;99.90;;;5.78;100.00;-20839.63;5055223;28;20821;-70
2020/12/02 01:27:21;;;;;;;0.70;0.60;;;5.30;99.90;;;5.76;100.00;-20839.06;5055011;28;20863;-70
2020/12/02 01:29:49;;;;;;;0.70;0.60;;;5.30;99.90;;;5.77;100.00;-20839.34;5049622;28;20449;-70
2020/12/02 01:32:16;;;;;;;0.60;0.60;;;5.30;99.90;;;5.78;100.00;-20839.63;5042661;28;20523;-70
2020/12/02 01:34:49;;;;;;;0.70;0.60;;;5.30;99.90;;;5.80;100.00;-20840.19;5054449;28;20425;-71
2020/12/02 01:37:31;;;;;;;0.70;0.70;;;5.30;99.90;;;5.77;100.00;-20839.34;5040422;28;20433;-72
2020/12/02 01:40:15;;;;;;;0.60;0.50;;;5.30;99.90;;;5.78;100.00;-20839.47;5035544;28;20984;-70
2020/12/02 01:42:46;;;;;;;0.60;0.50;;;5.30;99.90;;;5.75;100.00;-20838.78;5047134;28;20460;-71
2020/12/02 01:45:23;;;;;;;0.60;0.60;;;5.30;99.90;;;5.74;100.00;-20838.50;5043269;28;20417;-71
2020/12/02 01:48:09;;;;;;;0.70;0.60;;;5.30;99.90;;;5.76;100.00;-20839.06;5050342;28;20456;-70
2020/12/02 01:50:43;;;;;;;0.70;0.60;;;5.30;99.90;;;5.87;100.00;-20841.84;5037073;28;20437;-70
2020/12/02 01:53:21;;;;;;;0.67;0.60;;;5.30;99.90;;;5.77;100.00;-20839.22;5042291;28;20435;-71
2020/12/02 01:55:58;;;;;;;0.70;0.60;;;5.30;99.90;;;5.65;100.00;-20835.88;5051788;28;20459;-70
2020/12/02 01:58:57;;;;;;;0.60;0.57;;;5.30;99.90;;;5.77;100.00;-20839.34;5033795;28;20478;-70
2020/12/02 02:01:38;;;;;;;0.70;0.60;;;5.20;99.90;;;5.71;100.00;-20837.69;5050405;28;20428;-72
2020/12/02 02:04:09;;;;;;;0.60;0.60;;;5.20;99.90;;;5.75;100.00;-20838.78;5050184;28;20455;-70
2020/12/02 02:07:03;;;;;;;0.60;0.60;;;5.20;99.90;;;5.75;100.00;-20838.78;5054537;28;20428;-70
2020/12/02 02:09:31;;;;;;;0.60;0.60;;;5.20;99.90;;;5.74;100.00;-20838.50;5054858;28;20416;-70
2020/12/02 02:12:42;;;;;;;0.70;0.60;;;5.20;99.90;;;5.74;100.00;-20838.50;5055615;28;20474;-70
2020/12/02 02:15:27;;;;;;;0.60;0.60;;;5.20;99.90;;;5.73;100.00;-20838.22;5034903;28;20414;-70
2020/12/02 02:17:56;;;;;;;0.60;0.50;;;5.20;99.90;;;5.74;100.00;-20838.50;5047043;28;20428;-70
2020/12/02 02:20:28;;;;;;;0.60;0.50;;;5.20;99.90;;;5.76;100.00;-20838.94;5042896;28;20940;-70
2020/12/02 02:22:55;;;;;;;0.70;0.70;;;5.20;99.90;;;5.74;100.00;-20838.50;5067972;28;20457;-70
2020/12/02 02:25:22;;;;;;;0.70;0.60;;;5.20;99.90;;;5.74;100.00;-20838.38;5054688;28;20905;-69
2020/12/02 02:27:51;;;;;;;0.70;0.60;;;5.30;99.90;;;5.74;100.00;-20838.50;5035936;28;20464;-70
2020/12/02 02:30:18;;;;;;;0.63;0.60;;;5.30;99.90;;;5.89;100.00;-20842.41;5047101;28;20470;-70
2020/12/02 02:32:47;;;;;;;0.70;0.60;;;5.30;99.90;;;5.84;100.00;-20841.00;5054684;28;20404;-72
2020/12/02 02:35:15;;;;;;;0.63;0.60;;;5.30;99.90;;;5.71;100.00;-20837.53;5066155;28;20429;-72
2020/12/02 02:37:44;;;;;;;0.60;0.60;;;5.30;99.90;;;5.76;100.00;-20839.06;5035723;28;20519;-72
2020/12/02 02:40:12;;;;;;;0.70;0.60;;;5.30;99.90;;;5.77;100.00;-20839.34;5034440;28;20560;-70
2020/12/02 02:42:44;;;;;;;0.70;0.60;;;5.30;99.90;;;5.77;100.00;-20839.34;5033627;28;20469;-70
2020/12/02 02:45:15;;;;;;;0.70;0.60;;;5.30;99.90;;;5.84;100.00;-20841.16;5035450;28;20857;-70
2020/12/02 02:47:43;;;;;;;0.70;0.50;;;5.30;99.90;;;5.82;100.00;-20840.75;5036941;28;20546;-70
2020/12/02 02:50:13;;;;;;;0.63;0.60;;;5.30;99.90;;;5.72;100.00;-20837.97;5052784;28;20835;-70
2020/12/02 02:52:42;;;;;;;0.60;0.60;;;5.20;99.90;;;5.80;100.00;-20840.03;5048871;28;20513;-72
2020/12/02 02:55:20;;;;;;;0.70;0.50;;;5.20;99.90;;;5.78;100.00;-20839.47;5047209;28;20468;-72
2020/12/02 02:57:47;;;;;;;0.70;0.60;;;5.10;99.90;;;5.63;100.00;-20835.31;5053784;28;20862;-72
2020/12/02 03:00:21;;;;;;;0.70;0.60;;;5.10;99.90;;;5.63;100.00;-20835.31;5052255;28;20749;-72
2020/12/02 03:02:48;;;;;;;0.60;0.60;;;5.10;99.90;;;5.61;100.00;-20834.91;5042172;28;20467;-70
2020/12/02 03:05:15;;;;;;;0.70;0.60;;;5.10;99.90;;;5.59;100.00;-20834.34;5053326;28;20408;-70
2020/12/02 03:07:44;;;;;;;0.70;0.63;;;5.10;99.90;;;5.56;100.00;-20833.66;5053636;28;20491;-71
2020/12/02 03:10:15;;;;;;;0.63;0.60;;;5.10;99.90;;;5.70;100.00;-20837.25;5039056;28;20500;-70
2020/12/02 03:12:45;;;;;;;0.70;0.63;;;5.10;99.90;;;5.71;100.00;-20837.53;5040204;28;20448;-70
2020/12/02 03:15:12;;;;;;;0.60;0.60;;;5.20;99.90;;;5.64;100.00;-20835.72;5032681;28;20463;-70
2020/12/02 03:17:40;;;;;;;0.70;0.60;;;5.10;99.90;;;5.66;100.00;-20836.28;5043325;28;20777;-72
2020/12/02 03:20:15;;;;;;;0.70;0.60;;;5.10;99.90;;;5.57;100.00;-20833.91;5052191;28;20932;-72
2020/12/02 03:22:43;;;;;;;0.70;0.60;;;5.10;99.90;;;5.65;100.00;-20835.88;5053640;28;20412;-72
2020/12/02 03:25:15;;;;;;;0.63;0.60;;;5.20;99.90;;;5.79;100.00;-20839.91;5040348;28;20511;-72
2020/12/02 03:27:42;;;;;;;0.60;0.60;;;5.10;99.90;;;5.71;100.00;-20837.53;5039481;28;20464;-72
2020/12/02 03:30:09;;;;;;;0.60;0.60;;;5.10;99.90;;;5.64;100.00;-20835.72;5033984;28;20531;-72
2020/12/02 03:32:36;;;;;;;0.60;0.50;;;5.20;99.90;;;5.67;100.00;-20836.56;5032636;28;20425;-72
2020/12/02 03:35:05;;;;;;;0.70;0.60;;;5.10;99.90;;;5.63;100.00;-20835.31;5032580;28;20483;-72
2020/12/02 03:37:32;;;;;;;0.70;0.60;;;5.10;99.90;;;5.58;100.00;-20834.06;5033415;28;20491;-72
2020/12/02 03:39:59;;;;;;;0.60;0.60;;;5.10;99.90;;;5.66;100.00;-20836.28;5033178;28;20937;-71
2020/12/02 03:42:26;;;;;;;0.70;0.67;;;5.10;99.90;;;5.56;100.00;-20833.50;5051153;28;20468;-70
2020/12/02 03:44:53;;;;;;;0.70;0.60;;;5.10;99.90;;;5.55;100.00;-20833.22;5053276;28;20938;-73
2020/12/02 03:47:20;;;;;;;0.70;0.60;;;5.10;99.90;;;5.62;100.00;-20835.03;5048771;28;20472;-72
2020/12/02 03:49:47;;;;;;;0.63;0.60;;;5.10;99.90;;;5.54;100.00;-20832.94;5032277;28;20413;-72
2020/12/02 03:52:15;;;;;;;0.67;0.50;;;5.00;99.90;;;5.53;100.00;-20832.81;5045025;28;20824;-70
2020/12/02 03:54:42;;;;;;;1.00;0.87;;;5.00;99.90;;;5.52;100.00;-20832.53;5041827;28;20437;-70
2020/12/02 03:57:09;;;;;;;0.67;0.60;;;5.00;99.90;;;5.61;100.00;-20834.91;5038914;28;20871;-70
2020/12/02 03:59:36;;;;;;;0.70;0.60;;;5.00;99.90;;;5.59;100.00;-20834.34;5040568;28;20895;-70
2020/12/02 04:02:04;;;;;;;0.60;0.60;;;5.00;99.90;;;5.61;100.00;-20834.75;5051807;28;20468;-71
2020/12/02 04:04:31;;;;;;;0.70;0.60;;;5.00;99.90;;;5.55;100.00;-20833.22;5043134;28;20479;-71
2020/12/02 04:06:58;;;;;;;0.70;0.60;;;5.00;99.90;;;5.52;100.00;-20832.38;5051779;28;20432;-70
2020/12/02 04:09:26;;;;;;;0.60;0.60;;;5.00;99.90;;;5.51;100.00;-20832.25;5068570;28;20428;-70
2020/12/02 04:11:52;;;;;;;0.60;0.60;;;5.00;99.90;;;5.59;100.00;-20834.34;5050986;28;20499;-70
2020/12/02 04:14:20;;;;;;;0.63;0.60;;;5.00;99.90;;;5.63;100.00;-20835.44;5051806;28;20502;-70
2020/12/02 04:16:47;;;;;;;0.60;0.60;;;5.00;99.90;;;5.53;100.00;-20832.81;5054464;28;20486;-72
2020/12/02 04:19:14;;;;;;;0.70;0.60;;;5.00;99.90;;;5.54;100.00;-20832.94;5055488;28;20481;-70
2020/12/02 04:21:41;;;;;;;0.63;0.57;;;5.00;99.90;;;5.48;100.00;-20831.28;5037292;28;20413;-70
2020/12/02 04:24:07;;;;;;;0.60;0.60;;;5.00;99.90;;;5.50;100.00;-20831.84;5040289;28;20507;-70
2020/12/02 04:26:35;;;;;;;0.60;0.50;;;5.00;99.90;;;5.54;100.00;-20833.09;5051848;28;20559;-70
2020/12/02 04:29:03;;;;;;;0.70;0.60;;;4.90;99.90;;;5.61;100.00;-20834.91;5036845;28;20555;-70
2020/12/02 04:31:30;;;;;;;0.70;0.63;;;4.90;99.90;;;5.48;100.00;-20831.41;5038434;28;20445;-71
2020/12/02 04:33:57;;;;;;;0.70;0.60;;;5.00;99.90;;;5.44;100.00;-20830.31;5055209;28;20463;-71
2020/12/02 04:36:24;;;;;;;0.70;0.60;;;4.90;99.90;;;5.43;100.00;-20830.03;5055088;28;20443;-71
2020/12/02 04:38:51;;;;;;;1.43;1.33;;;4.90;99.90;;;5.43;100.00;-20829.88;5056803;28;20526;-70
2020/12/02 04:41:18;;;;;;;0.93;0.83;;;4.90;99.90;;;5.52;100.00;-20832.38;5041557;28;20508;-72
2020/12/02 04:43:53;;;;;;;0.70;0.60;;;4.90;99.90;;;5.45;100.00;-20830.59;5038464;28;20488;-70
2020/12/02 04:46:24;;;;;;;0.70;0.60;;;5.00;99.90;;;5.48;100.00;-20831.28;5036714;28;20844;-71
2020/12/02 04:48:54;;;;;;;0.70;0.60;;;4.90;99.90;;;5.42;100.00;-20829.59;5046773;28;20466;-70
2020/12/02 04:51:25;;;;;;;0.70;0.60;;;4.90;99.90;;;5.54;100.00;-20832.94;5056692;28;20462;-70
2020/12/02 04:53:56;;;;;;;0.70;0.60;;;4.90;99.90;;;5.50;100.00;-20831.97;5045079;28;20494;-71
2020/12/02 04:56:25;;;;;;;0.70;0.60;;;5.00;99.90;;;5.30;100.00;-20826.56;5036412;28;20498;-71
2020/12/02 04:58:56;;;;;;;0.70;0.60;;;4.90;99.90;;;5.47;100.00;-20831.00;5019063;28;20520;-71
2020/12/02 05:01:27;;;;;;;0.70;0.60;;;4.90;99.90;;;5.35;100.00;-20827.66;5041899;28;20782;-71
2020/12/02 05:04:02;;;;;;;0.70;0.60;;;4.90;99.90;;;5.36;100.00;-20828.06;5044420;28;20937;-71
2020/12/02 05:06:39;;;;;;;0.70;0.60;;;4.90;99.90;;;5.36;100.00;-20827.94;5036506;28;20507;-71
2020/12/02 05:09:11;;;;;;;0.67;0.50;;;4.90;99.90;;;5.27;100.00;-20825.56;5037082;28;22055;-71
2020/12/02 05:11:40;;;;;;;0.80;0.80;;;4.80;99.90;;;5.27;100.00;-20825.56;5036985;28;20822;-71
2020/12/02 05:14:15;;;;;;;0.70;0.60;;;4.80;99.90;;;5.20;100.00;-20823.75;5044830;28;20469;-71
2020/12/02 05:16:42;;;;;;;0.70;0.60;;;4.80;99.90;;;5.23;100.00;-20824.59;5036275;28;20469;-71
2020/12/02 05:19:20;;;;;;;0.70;0.70;;;4.80;99.90;;;5.27;100.00;-20825.72;5045186;28;20525;-70
2020/12/02 05:21:47;;;;;;;0.60;0.60;;;4.80;99.90;;;5.26;100.00;-20825.44;5036041;28;20751;-71
2020/12/02 05:24:16;;;;;;;0.70;0.60;;;4.80;99.90;;;5.30;100.00;-20826.41;5036135;28;20402;-71
2020/12/02 05:26:48;;;;;;;0.67;0.60;;;4.80;99.90;;;5.33;100.00;-20827.25;5035466;28;21028;-71
2020/12/02 05:29:33;;;;;;;0.60;0.60;;;4.90;99.90;;;5.36;100.00;-20827.94;5035517;28;20551;-71
2020/12/02 05:32:04;;;;;;;0.60;0.60;;;4.90;99.90;;;5.32;100.00;-20827.09;5049882;28;20509;-70
2020/12/02 05:34:33;;;;;;;0.70;0.60;;;4.90;99.90;;;5.37;100.00;-20828.34;5055984;28;20444;-70
2020/12/02 05:37:04;;;;;;;0.70;0.60;;;4.90;99.90;;;5.36;100.00;-20827.94;5050636;28;20930;-70
2020/12/02 05:39:44;;;;;;;0.60;0.60;;;4.90;99.90;;;5.38;100.00;-20828.50;5035692;28;20780;-70
2020/12/02 05:42:23;;;;;;;0.70;0.60;;;4.90;99.90;;;5.39;100.00;-20828.78;5044807;28;20478;-70
2020/12/02 05:45:06;;;;;;;0.60;0.50;;;5.00;99.90;;;5.43;100.00;-20829.88;5035698;28;20475;-70
2020/12/02 05:47:33;;;;;;;0.70;0.60;;;5.00;99.90;;;5.38;100.00;-20828.50;5052080;28;20554;-70
2020/12/02 05:50:06;;;;;;;0.70;0.60;;;5.00;99.90;;;5.37;100.00;-20828.34;5049498;28;20857;-70
2020/12/02 05:52:36;;;;;;;0.60;0.50;;;5.00;99.90;;;5.42;100.00;-20829.59;5045225;28;20441;-70
2020/12/02 05:55:31;;;;;;;0.70;0.60;;;5.00;99.90;;;5.45;100.00;-20830.44;5042172;28;20447;-70
2020/12/02 05:58:10;;;;;;;0.70;0.50;;;5.00;99.90;;;5.37;100.00;-20828.22;5062724;28;20440;-70
2020/12/02 06:00:37;;;;;;;0.60;0.60;;;5.00;99.90;;;5.40;100.00;-20829.19;5041143;28;20472;-70
2020/12/02 06:03:09;;;;;;;0.63;0.60;;;4.90;99.90;;;5.54;100.00;-20833.09;5040287;28;20428;-71
2020/12/02 06:05:36;;;;;;;0.70;0.60;;;4.90;99.90;;;5.52;100.00;-20832.38;5042361;28;20519;-71
2020/12/02 06:08:07;;;;;;;0.60;0.50;;;4.90;99.90;;;5.44;100.00;-20830.16;5036703;28;20466;-71
2020/12/02 06:10:56;;;;;;;0.60;0.50;;;4.90;99.90;;;5.61;100.00;-20834.91;5035954;28;20490;-72
2020/12/02 06:13:38;;;;;;;0.60;0.50;;;4.90;99.90;;;5.56;100.00;-20833.50;5035569;28;20527;-72
2020/12/02 06:16:06;;;;;;;0.60;0.60;;;4.90;99.90;;;5.61;100.00;-20834.91;5035128;28;20413;-70
2020/12/02 06:18:36;;;;;;;0.60;0.50;;;4.90;99.90;;;5.49;100.00;-20831.69;5034660;28;20456;-70
2020/12/02 06:21:05;;;;;;;1.70;1.60;;;5.00;99.90;;;5.47;100.00;-20831.13;5053235;28;20449;-71
2020/12/02 06:23:35;;;;;;;0.63;0.60;;;4.90;99.90;;;5.43;100.00;-20829.88;5055269;28;21031;-71
2020/12/02 06:26:02;;;;;;;0.70;0.60;;;4.90;99.90;;;5.45;100.00;-20830.59;5055073;28;20939;-71
2020/12/02 06:28:48;;;;;;;1.20;1.10;;;4.90;99.90;;;5.64;100.00;-20835.72;5046494;28;20495;-71
2020/12/02 06:31:28;;;;;;;2.90;2.70;;;4.90;99.90;;;5.56;100.00;-20833.66;5039913;28;20482;-71
2020/12/02 06:33:57;;;;;;;0.63;0.60;;;4.90;99.90;;;5.53;100.00;-20832.66;5040392;28;20439;-71
2020/12/02 06:36:28;;;;;;;0.60;0.50;;;5.00;99.90;;;5.56;100.00;-20833.50;5041815;28;20495;-72
2020/12/02 06:39:21;;;;;;;0.60;0.60;;;5.00;99.90;;;5.65;100.00;-20836.00;5044572;28;20463;-71
2020/12/02 06:41:48;;;;;;;0.70;0.60;;;5.00;99.90;;;5.73;100.00;-20838.09;5039866;28;20492;-71
2020/12/02 06:44:58;;;;;;;0.67;0.50;;;5.00;99.90;;;5.68;100.00;-20836.84;5041088;28;20495;-70
2020/12/02 06:47:28;;;;;;;0.70;0.60;;;5.00;99.90;;;5.66;100.00;-20836.28;5042562;28;20472;-70
2020/12/02 06:50:11;;;;;;;0.70;0.50;;;5.00;99.90;;;5.58;100.00;-20834.19;5037107;28;20473;-71
2020/12/02 06:52:39;;;;;;;0.60;0.60;;;5.00;99.90;;;5.49;100.00;-20831.69;5043673;28;20448;-70
2020/12/02 06:55:20;;;;;;;0.60;0.60;;;5.00;99.90;;;5.56;100.00;-20833.66;5049511;28;20475;-70
2020/12/02 06:57:47;;;;;;;0.60;0.50;;;5.00;99.90;;;5.51;100.00;-20832.25;5041522;28;20429;-70
2020/12/02 07:00:21;;;;;;;1.43;1.17;;;4.90;99.90;;;5.53;100.00;-20832.66;5055504;28;20453;-70
2020/12/02 07:02:55;;;;;;;0.60;0.60;;;5.00;99.90;;;5.55;100.00;-20833.38;5044907;28;20440;-70
2020/12/02 07:05:35;;;;;;;0.60;0.50;;;5.00;99.90;;;5.63;100.00;-20835.44;5048833;28;20796;-71
2020/12/02 07:08:12;;;;;;;0.70;0.60;;;5.00;99.90;;;5.52;100.00;-20832.38;5054037;28;20506;-71
2020/12/02 07:10:42;;;;;;;0.60;0.60;;;5.00;99.90;;;5.44;100.00;-20830.31;5047719;28;20509;-71
2020/12/02 07:13:15;;;;;;;1.43;1.33;;;5.00;99.90;;;5.51;100.00;-20832.25;5040585;28;20480;-70
2020/12/02 07:15:43;;;;;;;0.70;0.50;;;5.00;99.90;;;5.55;100.00;-20833.22;5042421;28;20861;-70
2020/12/02 07:18:16;;;;;;;0.80;0.80;;;5.00;99.90;;;5.52;100.00;-20832.38;5044323;28;20456;-71
2020/12/02 07:20:46;;;;;;;0.70;0.60;;;4.90;99.90;;;5.46;100.00;-20830.72;5039716;28;20514;-71
2020/12/02 07:23:15;;;;;;;0.60;0.60;;;4.90;99.90;;;5.41;100.00;-20829.47;5046410;28;20483;-71
2020/12/02 07:25:43;;;;;;;0.70;0.60;;;4.90;99.90;;;5.35;100.00;-20827.81;5053525;28;20962;-71
2020/12/02 07:28:18;;;;;;;0.70;0.60;;;4.90;99.90;;;5.23;100.00;-20824.47;5050293;28;20519;-70
2020/12/02 07:30:48;;;;;;;0.70;0.60;;;4.80;99.90;;;5.22;100.00;-20824.31;5046006;28;20451;-70
2020/12/02 07:33:24;;;;;;;0.70;0.60;;;4.80;99.90;;;5.25;100.00;-20825.16;5047831;28;20496;-71
2020/12/02 07:36:14;;;;;;;0.60;0.60;;;4.80;99.90;;;5.46;100.00;-20830.72;5033577;28;20437;-70
2020/12/02 07:38:43;;;;;;;0.70;0.60;;;4.80;99.90;;;5.28;100.00;-20825.84;5044652;28;20432;-70
2020/12/02 07:41:14;;;;;;;0.70;0.60;;;4.80;99.90;;;5.30;100.00;-20826.56;5035395;28;21063;-71
2020/12/02 07:43:46;;;;;;;0.67;0.60;;;4.80;99.90;;;5.12;100.00;-20821.53;5033688;28;20448;-71
2020/12/02 07:46:15;;;;;;;0.93;0.93;;;4.70;99.90;;;5.13;100.00;-20821.69;5047694;28;20425;-71
2020/12/02 07:48:43;;;;;;;0.60;0.50;;;4.70;99.90;;;5.23;100.00;-20824.59;5034917;28;20467;-70
2020/12/02 07:51:17;;;;;;;0.60;0.60;;;4.70;99.90;;;5.26;100.00;-20825.28;5032572;28;20467;-71
2020/12/02 07:53:55;;;;;;;0.70;0.60;;;4.80;99.90;;;5.35;100.00;-20827.81;5043456;28;20490;-70
2020/12/02 07:56:29;;;;;;;0.67;0.60;;;4.70;99.90;;;5.33;100.00;-20827.25;5043822;28;20569;-71
2020/12/02 07:59:03;;;;;;;0.70;0.60;;;4.80;99.90;;;5.24;100.00;-20824.88;5047813;28;20429;-71
2020/12/02 08:01:52;;;;;;;0.70;0.60;;;4.80;99.90;;;5.29;100.00;-20826.25;5045793;28;20444;-71
2020/12/02 08:04:49;;;;;;;0.70;0.60;;;4.70;99.90;;;5.32;100.00;-20827.09;5051334;28;20439;-74
2020/12/02 08:07:17;;;;;;;0.60;0.50;;;4.70;99.90;;;5.43;100.00;-20830.03;5045675;28;20432;-70
2020/12/02 08:09:48;;;;;;;1.37;1.27;;;4.70;99.90;;;5.52;100.00;-20832.53;5055329;28;20445;-70
2020/12/02 08:12:20;;;;;;;0.70;0.60;;;4.70;99.90;;;5.49;100.00;-20831.56;5033204;28;20425;-70
2020/12/02 08:14:58;;;;;;;0.90;0.90;;;4.80;99.90;;;5.40;100.00;-20829.19;5033494;28;20474;-71
2020/12/02 08:17:28;;;;;;;0.60;0.50;;;4.80;99.90;;;5.50;100.00;-20831.84;5047230;28;20501;-70
2020/12/02 08:19:59;;;;;;;0.70;0.60;;;4.80;99.90;;;5.47;100.00;-20831.00;5034918;28;20491;-70
2020/12/02 08:22:38;;;;;;;0.60;0.50;;;4.80;99.90;;;5.55;100.00;-20833.38;5050710;28;20443;-71
2020/12/02 08:25:21;;;;;;;0.60;0.60;;;4.80;99.90;;;5.57;100.00;-20833.91;5038677;28;20949;-70
2020/12/02 08:27:50;;;;;;;0.70;0.60;;;4.80;99.90;;;5.78;100.00;-20839.63;5052542;28;20505;-71
2020/12/02 08:30:24;;;;;;;0.70;0.60;;;4.80;99.90;;;5.72;100.00;-20837.97;5039877;28;20451;-71
2020/12/02 08:32:57;;;;;;;0.70;0.60;;;4.80;99.90;;;5.68;100.00;-20836.72;5033533;28;20814;-71
2020/12/02 08:35:30;;;;;;;0.70;0.60;;;4.80;99.90;;;5.66;100.00;-20836.16;5033120;28;20409;-71
2020/12/02 08:37:59;;;;;;;2.80;1.03;;;4.90;99.90;;;5.49;100.00;-20831.56;5033116;28;20460;-70
2020/12/02 08:40:48;;;;;;;0.60;0.50;;;4.90;99.90;;;5.50;100.00;-20831.84;5042169;28;20820;-71
2020/12/02 08:43:33;;;;;;;0.60;0.60;;;4.90;99.90;;;5.53;100.00;-20832.81;5033479;28;20950;-71
2020/12/02 08:46:25;;;;;;;0.60;0.60;;;4.90;99.90;;;5.68;100.00;-20836.84;5039035;28;20503;-70
2020/12/02 08:48:57;;;;;;;0.60;0.53;;;5.00;99.90;;;5.66;100.00;-20836.28;5045096;28;20456;-71
2020/12/02 08:51:25;;;;;;;0.67;0.53;;;5.00;99.90;;;5.59;100.00;-20834.34;5052965;28;20912;-71
2020/12/02 08:53:54;;;;;;;0.80;0.80;;;5.00;99.90;;;5.72;100.00;-20837.81;5046341;28;20484;-71
2020/12/02 08:56:31;;;;;;;0.60;0.50;;;5.00;99.90;;;5.90;100.00;-20842.69;5038594;28;20448;-71
2020/12/02 08:58:59;;;;;;;0.70;0.60;;;5.00;99.90;;;5.95;100.00;-20844.09;5048212;28;20421;-71
2020/12/02 09:01:26;;;;;;;0.70;0.70;;;5.10;99.90;;;6.14;100.00;-20849.22;5034066;28;20417;-72
2020/12/02 09:03:53;;;;;;;0.70;0.60;;;5.10;99.90;;;6.21;100.00;-20851.19;5051532;28;20448;-72
2020/12/02 09:06:22;;;;;;;0.70;0.50;;;5.10;99.90;;;6.06;100.00;-20847.13;5038586;28;20447;-72
2020/12/02 09:08:51;;;;;;;0.70;0.60;;;5.20;99.90;;;6.09;100.00;-20847.97;5056454;28;20463;-70
2020/12/02 09:11:25;;;;;;;0.70;0.63;;;5.20;99.90;;;6.18;100.00;-20850.34;5046929;28;20484;-72
2020/12/02 09:13:52;;;;;;;0.67;0.50;;;5.10;99.90;;;6.08;100.00;-20847.69;5038554;28;20460;-71
2020/12/02 09:16:23;;;;;;;0.70;0.60;;;5.10;99.90;;;5.96;100.00;-20844.50;5036614;28;20986;-70
2020/12/02 09:18:52;;;;;;;0.60;0.50;;;5.10;99.90;;;6.03;100.00;-20846.44;5047211;28;20476;-70
2020/12/02 09:21:19;;;;;;;0.70;0.60;;;5.20;99.90;;;6.19;100.00;-20850.75;5043590;28;20448;-71
2020/12/02 09:23:46;;;;;;;0.70;0.60;;;5.20;99.90;;;6.41;100.00;-20856.59;5038949;28;20839;-69
2020/12/02 09:26:19;;;;;;;0.70;0.60;;;5.20;99.90;;;6.59;100.00;-20861.59;5039109;28;20464;-72
2020/12/02 09:28:48;;;;;;;0.70;0.70;;;5.30;99.90;;;6.46;100.00;-20858.00;5055576;28;20465;-70
2020/12/02 09:31:16;;;;;;;0.70;0.60;;;5.40;99.90;;;6.62;100.00;-20862.44;5049240;28;20436;-71
2020/12/02 09:33:45;;;;;;;0.70;0.60;;;5.40;99.90;;;6.49;100.00;-20858.81;5054057;28;20452;-70
2020/12/02 09:36:12;;;;;;;0.70;0.60;;;5.30;99.90;;;6.40;100.00;-20856.31;5036918;28;20519;-70
2020/12/02 09:38:40;;;;;;;0.60;0.50;;;5.30;99.90;;;6.44;100.00;-20857.56;5035852;28;20416;-70
2020/12/02 09:41:33;;;;;;;0.63;0.57;;;5.40;99.90;;;6.54;100.00;-20860.22;5042265;28;20479;-72
2020/12/02 09:44:31;;;;;;;0.70;0.50;;;5.30;99.90;;;6.35;100.00;-20854.94;5034769;28;20440;-69
2020/12/02 09:47:02;;;;;;;0.70;0.60;;;5.20;99.90;;;6.29;100.00;-20853.53;5056250;28;20497;-72
2020/12/02 09:49:31;;;;;;;0.63;0.50;;;5.20;99.90;;;6.55;100.00;-20860.47;5056234;28;20564;-70
2020/12/02 09:52:35;;;;;;;0.70;0.60;;;5.20;99.90;;;6.47;100.00;-20858.25;5046691;28;20461;-70
2020/12/02 09:55:10;;;;;;;0.63;0.60;;;5.20;99.90;;;6.48;100.00;-20858.53;5034754;28;20471;-70
2020/12/02 09:57:39;;;;;;;0.60;0.60;;;5.30;99.90;;;6.50;100.00;-20859.09;5043161;28;20432;-70
2020/12/02 10:00:11;;;;;;;0.70;0.57;;;5.30;99.90;;;6.60;100.00;-20861.88;5053385;28;20800;-71
2020/12/02 10:03:20;;;;;;;0.70;0.60;;;5.40;99.90;;;6.44;100.00;-20857.44;5053540;28;20919;-71
2020/12/02 10:06:22;;;;;;;0.70;0.60;;;5.40;99.90;;;6.68;100.00;-20864.09;5051688;28;20455;-71
2020/12/02 10:09:17;;;;;;;0.60;0.60;;;5.60;99.90;;;6.46;100.00;-20858.00;5035161;28;20464;-71
2020/12/02 10:11:55;;;;;;;0.70;0.60;;;5.60;99.90;;;6.55;100.00;-20860.47;5044225;28;20474;-72
2020/12/02 10:15:08;;;;;;;0.60;0.50;;;5.50;99.90;;;6.91;100.00;-20870.22;5041515;28;20947;-71
2020/12/02 10:18:26;;;;;;;0.80;0.80;;;5.50;99.90;;;6.73;100.00;-20865.50;5039204;28;20441;-71
2020/12/02 10:21:04;;;;;;;0.70;0.63;;;5.60;99.90;;;6.86;100.00;-20868.97;5045546;28;20496;-72
2020/12/02 10:24:02;;;;;;;0.70;0.50;;;5.50;99.90;;;7.05;100.00;-20873.97;5042906;28;20425;-72
2020/12/02 10:27:15;;;;;;;0.67;0.60;;;5.50;99.90;;;6.89;100.00;-20869.81;5049301;28;20972;-72
2020/12/02 10:30:04;;;;;;;0.70;0.60;;;5.60;99.90;;;6.79;100.00;-20867.03;5044015;28;20502;-71
2020/12/02 10:33:16;;;;;;;0.67;0.50;;;5.50;99.90;;;6.97;100.00;-20872.03;5034206;28;21087;-71
2020/12/02 10:35:47;;;;;;;0.70;0.50;;;5.50;99.90;;;6.78;100.00;-20866.88;5037508;28;20433;-72
2020/12/02 10:38:34;;;;;;;0.70;0.60;;;5.60;99.90;;;6.44;100.00;-20857.56;5040714;28;20439;-71
2020/12/02 10:41:17;;;;;;;0.70;0.50;;;5.70;99.90;;;6.38;100.00;-20855.91;5026072;28;20495;-71
2020/12/02 10:44:05;;;;;;;0.70;0.60;;;5.70;99.90;;;6.61;100.00;-20862.00;5034049;28;20449;-72
2020/12/02 10:46:50;;;;;;;0.67;0.57;;;5.70;99.90;;;6.83;100.00;-20868.13;5052589;28;20860;-73
2020/12/02 10:49:26;;;;;;;0.60;0.50;;;5.70;99.90;;;6.83;100.00;-20868.00;5052756;28;20464;-71